createdAt,value
2022-10-26T00:00:29.254Z,15.88
2022-10-26T00:02:56.397Z,18.65
2022-10-26T00:05:23.717Z,16.98
2022-10-26T00:07:50.624Z,16.27
2022-10-26T00:10:17.278Z,24.00
2022-10-26T00:12:43.919Z,18.45
2022-10-26T00:15:10.648Z,18.73
2022-10-26T00:17:37.192Z,18.60
2022-10-26T00:20:03.893Z,18.83
2022-10-26T00:22:30.430Z,26.33
2022-10-26T00:24:56.986Z,20.30
2022-10-26T00:27:23.571Z,21.25
2022-10-26T00:29:50.106Z,19.27
2022-10-26T00:32:16.692Z,19.33
2022-10-26T00:34:43.271Z,17.95
2022-10-26T00:37:09.810Z,17.10
2022-10-26T00:39:36.641Z,22.88
2022-10-26T00:42:03.386Z,19.40
2022-10-26T00:45:05.345Z,17.83
2022-10-26T00:47:34.725Z,24.90
2022-10-26T00:50:08.858Z,19.38
2022-10-26T00:52:36.994Z,19.55
2022-10-26T00:55:05.142Z,18.10
2022-10-26T00:57:31.846Z,17.75
2022-10-26T01:00:00.373Z,18.10
2022-10-26T01:02:27.091Z,19.80
2022-10-26T01:04:54.257Z,16.95
2022-10-26T01:09:49.175Z,24.05
2022-10-26T01:12:15.710Z,23.98
2022-10-26T01:14:43.130Z,19.33
2022-10-26T01:17:42.663Z,19.30
2022-10-26T01:20:52.692Z,19.48
2022-10-26T01:23:59.351Z,18.02
2022-10-26T01:26:56.817Z,20.75
2022-10-26T01:30:22.604Z,20.58
2022-10-26T01:32:52.434Z,16.65
2022-10-26T01:35:44.391Z,17.00
2022-10-26T01:38:31.135Z,16.75
2022-10-26T01:41:06.694Z,18.55
2022-10-26T01:43:37.623Z,17.20
2022-10-26T01:46:07.106Z,16.63
2022-10-26T01:48:36.282Z,18.80
2022-10-26T01:51:04.955Z,16.30
2022-10-26T01:53:31.867Z,16.67
2022-10-26T01:55:59.187Z,19.17
2022-10-26T01:59:09.284Z,16.27
2022-10-26T02:01:47.964Z,18.23
2022-10-26T02:04:33.258Z,16.23
2022-10-26T02:07:16.495Z,20.90
2022-10-26T02:10:07.276Z,18.10
2022-10-26T02:12:53.982Z,15.30
2022-10-26T02:15:59.164Z,15.38
2022-10-26T02:18:38.055Z,15.52
2022-10-26T02:21:10.139Z,16.85
2022-10-26T02:23:40.050Z,15.38
2022-10-26T02:26:10.482Z,14.80
2022-10-26T02:28:41.969Z,13.80
2022-10-26T02:31:10.010Z,13.95
2022-10-26T02:33:41.333Z,13.70
2022-10-26T02:36:13.442Z,16.52
2022-10-26T02:38:42.406Z,19.10
2022-10-26T02:41:10.792Z,16.70
2022-10-26T02:43:42.686Z,15.45
2022-10-26T02:46:13.900Z,17.88
2022-10-26T02:48:41.005Z,18.23
2022-10-26T02:51:12.417Z,16.83
2022-10-26T02:53:56.918Z,14.32
2022-10-26T02:56:30.429Z,16.23
2022-10-26T02:59:00.864Z,15.88
2022-10-26T03:01:28.717Z,22.70
2022-10-26T03:03:59.570Z,17.50
2022-10-26T03:06:26.483Z,20.00
2022-10-26T03:08:53.247Z,20.65
2022-10-26T03:11:19.870Z,18.52
2022-10-26T03:13:46.420Z,18.25
2022-10-26T03:16:13.280Z,18.42
2022-10-26T03:18:39.981Z,18.60
2022-10-26T03:21:06.547Z,17.60
2022-10-26T03:23:33.286Z,21.35
2022-10-26T03:26:00.378Z,16.98
2022-10-26T03:28:27.029Z,17.58
2022-10-26T03:30:53.566Z,18.75
2022-10-26T03:33:23.213Z,17.83
2022-10-26T03:35:57.877Z,17.27
2022-10-26T03:38:24.766Z,18.15
2022-10-26T03:40:51.338Z,15.93
2022-10-26T03:43:18.353Z,14.40
2022-10-26T03:45:45.086Z,15.98
2022-10-26T03:48:11.708Z,20.83
2022-10-26T03:50:38.236Z,20.15
2022-10-26T03:53:05.543Z,17.35
2022-10-26T03:55:32.265Z,16.60
2022-10-26T03:57:58.844Z,14.95
2022-10-26T04:00:25.446Z,16.70
2022-10-26T04:02:59.775Z,17.75
2022-10-26T04:05:27.990Z,14.15
2022-10-26T04:07:56.013Z,14.48
2022-10-26T04:10:24.045Z,12.40
2022-10-26T04:12:50.893Z,13.05
2022-10-26T04:15:18.631Z,12.60
2022-10-26T04:17:45.864Z,13.55
2022-10-26T04:20:13.116Z,11.85
2022-10-26T04:22:39.881Z,12.23
2022-10-26T04:25:07.506Z,13.10
2022-10-26T04:27:34.264Z,12.65
2022-10-26T04:30:00.803Z,12.52
2022-10-26T04:32:27.351Z,15.73
2022-10-26T04:34:54.596Z,13.80
2022-10-26T04:37:21.173Z,13.48
2022-10-26T04:39:47.762Z,14.05
2022-10-26T04:42:14.336Z,13.43
2022-10-26T04:44:40.907Z,15.82
2022-10-26T04:47:07.424Z,15.55
2022-10-26T04:49:33.995Z,14.07
2022-10-26T04:52:00.547Z,14.95
2022-10-26T04:54:27.093Z,13.77
2022-10-26T04:56:53.752Z,13.98
2022-10-26T04:59:20.274Z,13.00
2022-10-26T05:01:46.930Z,14.20
2022-10-26T05:04:13.628Z,13.85
2022-10-26T05:06:40.340Z,14.13
2022-10-26T05:09:06.949Z,17.67
2022-10-26T05:11:33.545Z,15.15
2022-10-26T05:14:00.120Z,15.82
2022-10-26T05:16:26.680Z,13.95
2022-10-26T05:18:53.279Z,14.98
2022-10-26T05:21:19.925Z,15.13
2022-10-26T05:23:52.490Z,14.23
2022-10-26T05:26:19.545Z,15.73
2022-10-26T05:28:46.170Z,16.15
2022-10-26T05:31:13.580Z,15.00
2022-10-26T05:33:40.122Z,13.85
2022-10-26T05:36:07.122Z,19.80
2022-10-26T05:38:33.770Z,17.00
2022-10-26T05:41:01.637Z,14.48
2022-10-26T05:43:28.371Z,17.10
2022-10-26T05:45:54.921Z,16.23
2022-10-26T05:48:21.840Z,17.55
2022-10-26T05:50:48.744Z,15.75
2022-10-26T05:53:15.325Z,15.50
2022-10-26T05:55:42.598Z,15.30
2022-10-26T05:58:11.430Z,18.15
2022-10-26T06:00:48.055Z,13.32
2022-10-26T06:06:05.325Z,16.95
2022-10-26T06:08:34.089Z,14.45
2022-10-26T06:11:01.336Z,14.82
2022-10-26T06:13:28.169Z,15.38
2022-10-26T06:16:39.057Z,18.65
2022-10-26T06:19:14.425Z,14.73
2022-10-26T06:22:04.413Z,14.68
2022-10-26T06:24:42.787Z,14.20
2022-10-26T06:27:33.926Z,15.25
2022-10-26T06:30:12.170Z,19.05
2022-10-26T06:32:45.708Z,12.35
2022-10-26T06:35:24.395Z,18.70
2022-10-26T06:37:52.889Z,13.18
2022-10-26T06:40:20.486Z,15.50
2022-10-26T06:42:47.277Z,15.18
2022-10-26T06:45:15.629Z,15.73
2022-10-26T06:47:44.890Z,15.75
2022-10-26T06:50:50.135Z,17.70
2022-10-26T06:53:41.964Z,13.93
2022-10-26T06:56:11.768Z,17.08
2022-10-26T06:58:40.536Z,15.82
2022-10-26T07:01:07.549Z,16.80
2022-10-26T07:03:34.239Z,15.20
2022-10-26T07:06:00.767Z,26.98
2022-10-26T07:08:27.323Z,14.40
2022-10-26T07:10:53.894Z,16.15
2022-10-26T07:13:20.554Z,25.75
2022-10-26T07:15:48.074Z,14.95
2022-10-26T07:18:14.905Z,17.08
2022-10-26T07:20:42.501Z,15.93
2022-10-26T07:23:12.720Z,15.45
2022-10-26T07:25:40.574Z,14.88
2022-10-26T07:28:10.499Z,17.00
2022-10-26T07:30:39.069Z,15.82
2022-10-26T07:33:08.798Z,18.90
2022-10-26T09:48:51.785Z,13.73
2022-10-26T09:51:18.547Z,12.88
2022-10-26T09:53:45.787Z,11.50
2022-10-26T09:56:14.089Z,13.93
2022-10-26T09:58:44.694Z,14.30
2022-10-26T10:01:36.811Z,13.98
2022-10-26T10:04:22.618Z,13.52
2022-10-26T10:07:10.381Z,15.48
2022-10-26T10:09:36.906Z,14.45
2022-10-26T10:12:03.882Z,14.02
2022-10-26T10:14:36.110Z,13.63
2022-10-26T10:17:19.503Z,11.98
2022-10-26T10:19:46.415Z,15.32
2022-10-26T10:22:16.010Z,15.55
2022-10-26T10:24:53.015Z,15.50
2022-10-26T10:27:20.221Z,14.10
2022-10-26T10:29:49.768Z,12.77
2022-10-26T10:32:23.887Z,15.88
2022-10-26T10:34:51.830Z,14.68
2022-10-26T10:37:27.123Z,17.60
2022-10-26T10:40:04.381Z,11.15
2022-10-26T10:42:37.198Z,14.05
2022-10-26T10:45:05.669Z,13.50
2022-10-26T10:47:34.511Z,17.65
2022-10-26T10:50:03.468Z,15.40
2022-10-26T10:52:32.625Z,15.60
2022-10-26T10:55:11.114Z,18.85
2022-10-26T10:58:03.999Z,21.23
2022-10-26T11:00:35.575Z,18.48
2022-10-26T11:03:33.090Z,13.95
2022-10-26T11:06:24.654Z,15.32
2022-10-26T11:09:11.651Z,15.43
2022-10-26T11:11:46.043Z,13.98
2022-10-26T11:14:20.819Z,14.63
2022-10-26T11:16:55.441Z,15.18
2022-10-26T11:19:29.286Z,13.90
2022-10-26T11:21:56.629Z,13.30
2022-10-26T11:24:26.859Z,18.42
2022-10-26T11:27:05.950Z,13.73
2022-10-26T11:29:41.649Z,11.02
2022-10-26T11:32:30.789Z,11.45
2022-10-26T11:34:57.263Z,13.90
2022-10-26T11:37:48.378Z,10.18
2022-10-26T11:40:24.270Z,8.75
2022-10-26T11:43:03.262Z,11.98
2022-10-26T11:45:39.126Z,10.63
2022-10-26T11:48:25.659Z,10.32
2022-10-26T11:50:58.339Z,11.93
2022-10-26T11:53:30.592Z,12.02
2022-10-26T11:55:59.659Z,10.60
2022-10-26T11:58:28.441Z,9.95
2022-10-26T12:01:01.032Z,11.80
2022-10-26T12:03:33.222Z,10.25
2022-10-26T12:05:59.745Z,10.98
2022-10-26T12:08:58.362Z,15.55
2022-10-26T12:11:45.557Z,10.63
2022-10-26T12:14:18.163Z,8.40
2022-10-26T12:16:50.432Z,10.05
2022-10-26T12:19:50.509Z,10.65
2022-10-26T12:22:20.774Z,10.50
2022-10-26T12:25:09.003Z,9.80
2022-10-26T12:27:40.453Z,11.38
2022-10-26T12:30:19.017Z,8.68
2022-10-26T12:32:45.543Z,10.68
2022-10-26T12:35:41.462Z,8.63
2022-10-26T12:38:29.117Z,9.05
2022-10-26T12:41:04.298Z,8.50
2022-10-26T12:43:30.832Z,8.35
2022-10-26T12:46:12.621Z,6.60
2022-10-26T12:48:43.356Z,8.35
2022-10-26T12:51:22.440Z,6.65
2022-10-26T12:54:02.628Z,7.15
2022-10-26T12:56:54.207Z,5.28
2022-10-26T12:59:42.302Z,8.10
2022-10-26T13:02:43.857Z,5.57
2022-10-26T13:05:19.529Z,4.60
2022-10-26T13:07:46.813Z,5.45
2022-10-26T13:10:13.341Z,12.57
2022-10-26T13:12:42.557Z,6.75
2022-10-26T13:15:22.307Z,6.45
2022-10-26T13:18:02.481Z,6.22
2022-10-26T13:20:30.827Z,4.85
2022-10-26T13:22:57.832Z,6.10
2022-10-26T13:25:29.754Z,8.02
2022-10-26T13:28:04.553Z,13.25
2022-10-26T13:30:34.085Z,6.93
2022-10-26T13:33:02.705Z,7.90
2022-10-26T13:35:31.449Z,5.07
2022-10-26T13:38:00.437Z,6.32
2022-10-26T13:40:29.282Z,5.68
2022-10-26T13:43:06.914Z,7.68
2022-10-26T13:45:55.167Z,7.30
2022-10-26T13:48:41.525Z,7.68
2022-10-26T13:51:18.289Z,10.23
2022-10-26T13:53:53.482Z,5.70
2022-10-26T13:56:27.271Z,4.80
2022-10-26T13:59:09.706Z,6.32
2022-10-26T14:01:37.231Z,7.65
2022-10-26T14:04:18.629Z,8.25
2022-10-26T14:06:51.042Z,7.70
2022-10-26T14:09:19.933Z,8.60
2022-10-26T14:11:55.952Z,7.25
2022-10-26T14:14:37.229Z,7.40
2022-10-26T14:17:05.145Z,7.60
2022-10-26T14:19:36.239Z,8.27
2022-10-26T14:22:03.837Z,8.80
2022-10-26T14:24:46.679Z,8.00
2022-10-26T14:27:26.137Z,7.25
2022-10-26T14:30:20.603Z,6.13
2022-10-26T14:32:41.186Z,6.40
2022-10-26T14:35:12.979Z,6.93
2022-10-26T14:37:52.722Z,6.25
2022-10-26T14:40:22.181Z,7.55
2022-10-26T14:42:54.142Z,7.45
2022-10-26T14:45:30.141Z,5.05
2022-10-26T14:48:33.182Z,5.53
2022-10-26T14:51:00.511Z,8.38
2022-10-26T14:53:35.862Z,4.80
2022-10-26T14:56:04.550Z,4.85
2022-10-26T14:58:33.749Z,6.20
2022-10-26T15:01:31.840Z,7.97
2022-10-26T15:04:07.127Z,6.47
2022-10-26T15:06:42.053Z,9.82
2022-10-26T15:09:51.534Z,6.75
2022-10-26T15:12:34.063Z,8.15
2022-10-26T15:15:18.653Z,7.90
2022-10-26T15:17:56.968Z,9.32
2022-10-26T15:20:26.505Z,5.82
2022-10-26T15:22:56.271Z,8.57
2022-10-26T15:25:26.927Z,7.85
2022-10-26T15:27:53.791Z,8.85
2022-10-26T15:30:28.244Z,7.00
2022-10-26T15:32:55.988Z,8.90
2022-10-26T15:35:26.785Z,6.55
2022-10-26T15:37:55.380Z,7.40
2022-10-26T15:40:22.627Z,9.63
2022-10-26T15:42:52.066Z,7.38
2022-10-26T15:45:25.697Z,8.82
2022-10-26T15:47:53.911Z,10.88
2022-10-26T15:50:23.008Z,7.57
2022-10-26T15:52:50.502Z,8.18
2022-10-26T15:55:17.784Z,12.98
2022-10-26T15:57:44.617Z,8.38
2022-10-26T16:00:17.019Z,7.68
2022-10-26T16:02:45.220Z,7.20
2022-10-26T16:05:13.920Z,7.28
2022-10-26T16:07:43.267Z,6.68
2022-10-26T16:10:22.349Z,8.85
2022-10-26T16:12:50.362Z,7.50
2022-10-26T16:15:20.068Z,8.00
2022-10-26T16:17:47.187Z,7.03
2022-10-26T16:20:22.814Z,6.18
2022-10-26T16:22:51.213Z,7.05
2022-10-26T16:25:21.223Z,6.50
2022-10-26T16:27:49.423Z,7.13
2022-10-26T16:30:17.219Z,7.45
2022-10-26T16:32:44.392Z,7.55
2022-10-26T16:35:12.679Z,7.63
2022-10-26T16:37:39.442Z,9.63
2022-10-26T16:40:08.128Z,9.98
2022-10-26T16:42:34.679Z,7.38
2022-10-26T16:45:02.873Z,7.45
2022-10-26T16:47:35.575Z,9.52
2022-10-26T16:50:03.238Z,9.80
2022-10-26T16:52:29.795Z,8.75
2022-10-26T16:54:56.917Z,7.60
2022-10-26T16:57:23.483Z,7.22
2022-10-26T16:59:50.022Z,6.28
2022-10-26T17:02:16.825Z,5.35
2022-10-26T17:04:43.773Z,5.88
2022-10-26T17:07:10.966Z,5.50
2022-10-26T17:09:37.611Z,6.72
2022-10-26T17:12:04.743Z,4.82
2022-10-26T17:14:31.996Z,4.50
2022-10-26T17:16:58.886Z,6.78
2022-10-26T17:19:25.527Z,5.75
2022-10-26T17:21:52.194Z,4.57
2022-10-26T17:24:19.044Z,5.35
2022-10-26T17:26:45.734Z,6.47
2022-10-26T17:29:13.527Z,5.68
2022-10-26T17:31:40.476Z,7.85
2022-10-26T17:34:07.311Z,5.55
2022-10-26T17:36:33.983Z,4.53
2022-10-26T17:39:01.060Z,7.00
2022-10-26T17:41:28.686Z,7.03
2022-10-26T17:43:55.260Z,5.35
2022-10-26T17:46:24.479Z,7.22
2022-10-26T17:48:59.432Z,6.10
2022-10-26T17:51:27.203Z,7.53
2022-10-26T17:53:54.463Z,4.95
2022-10-26T17:56:22.936Z,5.85
2022-10-26T17:59:01.005Z,7.40
2022-10-26T18:01:28.899Z,5.95
2022-10-26T18:03:56.006Z,5.55
2022-10-26T18:06:23.096Z,6.40
2022-10-26T18:08:50.097Z,4.95
2022-10-26T18:11:25.341Z,5.13
2022-10-26T18:13:57.034Z,6.22
2022-10-26T18:16:26.623Z,11.60
2022-10-26T18:19:01.687Z,6.88
2022-10-26T18:21:30.243Z,4.78
2022-10-26T18:23:56.824Z,6.63
2022-10-26T18:26:28.828Z,8.85
2022-10-26T18:28:56.697Z,8.40
2022-10-26T18:31:24.256Z,6.57
2022-10-26T18:34:01.630Z,6.78
2022-10-26T18:36:28.840Z,8.38
2022-10-26T18:38:55.987Z,5.88
2022-10-26T18:41:24.214Z,5.75
2022-10-26T18:43:53.058Z,6.53
2022-10-26T18:46:29.334Z,6.13
2022-10-26T18:48:57.313Z,5.97
2022-10-26T18:51:28.675Z,6.72
2022-10-26T18:53:56.858Z,6.88
2022-10-26T18:56:24.946Z,8.88
2022-10-26T18:58:55.491Z,5.20
2022-10-26T19:01:25.143Z,6.30
2022-10-26T19:03:59.988Z,9.25
2022-10-26T19:06:35.194Z,7.57
2022-10-26T19:09:02.480Z,14.85
2022-10-26T19:11:31.010Z,8.52
2022-10-26T19:13:58.335Z,6.65
2022-10-26T19:16:44.644Z,6.22
2022-10-26T19:19:12.319Z,8.52
2022-10-26T19:21:39.134Z,7.03
2022-10-26T19:24:12.133Z,6.45
2022-10-26T19:26:42.410Z,7.40
2022-10-26T19:29:14.521Z,7.78
2022-10-26T19:31:41.756Z,6.70
2022-10-26T19:34:09.927Z,8.48
2022-10-26T19:36:36.522Z,7.68
2022-10-26T19:39:03.244Z,7.55
2022-10-26T19:41:31.274Z,6.60
2022-10-26T19:46:31.128Z,6.78
2022-10-26T19:49:00.087Z,7.75
2022-10-26T19:51:28.806Z,7.20
2022-10-26T19:53:57.923Z,6.72
2022-10-26T19:56:27.352Z,6.75
2022-10-26T19:58:54.198Z,6.90
2022-10-26T20:01:20.919Z,7.07
2022-10-26T20:03:47.639Z,8.18
2022-10-26T20:06:14.228Z,9.43
2022-10-26T20:08:42.487Z,8.30
2022-10-26T20:11:14.631Z,9.48
2022-10-26T20:13:43.019Z,9.15
2022-10-26T20:16:10.599Z,8.52
2022-10-26T20:18:37.276Z,9.38
2022-10-26T20:21:10.923Z,8.75
2022-10-26T20:23:37.602Z,8.85
2022-10-26T20:26:04.197Z,8.88
2022-10-26T20:28:31.023Z,8.48
2022-10-26T20:30:59.418Z,8.23
2022-10-26T20:33:26.851Z,9.07
2022-10-26T20:36:00.199Z,9.10
2022-10-26T20:38:27.210Z,10.88
2022-10-26T20:40:58.784Z,9.80
2022-10-26T20:43:27.208Z,9.70
2022-10-26T20:45:54.694Z,9.25
2022-10-26T20:48:21.858Z,11.25
2022-10-26T20:51:26.232Z,11.27
2022-10-26T20:54:02.517Z,9.85
2022-10-26T20:58:58.825Z,10.30
2022-10-26T21:01:33.694Z,10.63
2022-10-26T21:04:02.799Z,11.82
2022-10-26T21:06:32.185Z,15.50
2022-10-26T21:08:58.779Z,13.07
2022-10-26T21:11:25.755Z,11.45
2022-10-26T21:13:53.736Z,11.35
2022-10-26T21:18:51.873Z,12.75
2022-10-26T21:21:18.457Z,11.32
2022-10-26T21:23:45.021Z,15.63
2022-10-26T21:26:11.576Z,11.05
2022-10-26T21:28:45.775Z,13.30
2022-10-26T21:31:14.696Z,10.05
2022-10-26T21:33:41.589Z,13.55
2022-10-26T21:36:12.094Z,10.52
2022-10-26T21:38:40.030Z,13.30
2022-10-26T21:41:10.916Z,10.55
2022-10-26T21:43:40.297Z,13.85
2022-10-26T21:46:08.216Z,12.20
2022-10-26T21:48:35.869Z,11.27
2022-10-26T21:51:06.805Z,13.50
2022-10-26T21:53:33.527Z,10.05
2022-10-26T21:56:09.883Z,11.43
2022-10-26T21:58:36.737Z,13.18
2022-10-26T22:01:17.407Z,16.85
2022-10-26T22:03:44.534Z,15.02
2022-10-26T22:06:13.169Z,15.60
2022-10-26T22:08:40.176Z,12.68
2022-10-26T22:11:13.005Z,12.82
2022-10-26T22:13:42.788Z,12.75
2022-10-26T22:16:21.470Z,13.80
2022-10-26T22:18:49.922Z,19.13
2022-10-26T22:21:17.932Z,12.70
2022-10-26T22:23:45.226Z,14.68
2022-10-26T22:26:15.014Z,23.02
2022-10-26T22:28:43.331Z,13.43
2022-10-26T22:31:16.094Z,13.25
2022-10-26T22:33:43.491Z,13.40
2022-10-26T22:36:14.746Z,14.32
2022-10-26T22:38:42.218Z,13.65
2022-10-26T22:41:10.478Z,19.42
2022-10-26T22:43:37.736Z,14.52
2022-10-26T22:46:07.304Z,14.40
2022-10-26T22:48:34.927Z,14.63
2022-10-26T22:51:10.665Z,16.23
2022-10-26T22:53:37.862Z,17.67
2022-10-26T22:56:06.453Z,14.38
2022-10-26T22:58:34.903Z,19.38
2022-10-26T23:01:06.706Z,14.32
2022-10-26T23:03:34.025Z,13.57
2022-10-26T23:06:01.291Z,15.73
2022-10-26T23:08:28.685Z,15.88
2022-10-26T23:11:01.812Z,14.90
2022-10-26T23:13:29.247Z,13.40
2022-10-26T23:15:56.217Z,14.63
2022-10-26T23:18:22.957Z,17.83
2022-10-26T23:20:50.493Z,20.70
2022-10-26T23:23:17.965Z,18.08
2022-10-26T23:25:44.684Z,15.38
2022-10-26T23:28:11.358Z,19.67
2022-10-26T23:30:37.930Z,16.70
2022-10-26T23:33:04.541Z,14.93
2022-10-26T23:35:31.265Z,13.07
2022-10-26T23:37:58.925Z,14.48
2022-10-26T23:40:26.508Z,14.45
2022-10-26T23:42:53.535Z,14.50
2022-10-26T23:45:20.320Z,13.88
2022-10-26T23:47:46.930Z,18.08
2022-10-26T23:50:13.605Z,20.15
2022-10-26T23:52:40.298Z,17.48
2022-10-26T23:55:07.088Z,17.77
2022-10-26T23:57:33.631Z,16.90
